Time;durP1;ratioP1;P1;durP2;ratioP2;P2;SDS_P1;SDS_P2;PMS_P1;PMS_P2;Temp;Humidity;BMP_temperature;BMP_pressure;BME280_temperature;BME280_humidity;BME280_pressure;Samples;Min_cycle;Max_cycle;Signal;HPM_P1;HPM_P2
2022/03/11 00:00:25;;;;;;;5.20;3.95;;;15.90;75.10;;;;;;2020806;28;20160;-75
2022/03/11 00:01:23;;;;;;;4.73;3.50;;;15.90;80.30;;;;;;2020238;28;20509;-75
2022/03/11 00:02:22;;;;;;;7.47;4.00;;;15.90;74.70;;;;;;2020154;28;20171;-75
2022/03/11 00:03:21;;;;;;;5.23;3.93;;;15.90;73.90;;;;;;2020661;28;20192;-75
2022/03/11 00:04:19;;;;;;;3.88;3.15;;;15.90;73.40;;;;;;2020733;28;20171;-76
2022/03/11 00:05:18;;;;;;;6.20;4.20;;;15.90;73.80;;;;;;2020704;28;20267;-75
2022/03/11 00:06:16;;;;;;;6.13;4.33;;;15.90;74.60;;;;;;2020835;28;20602;-76
2022/03/11 00:07:16;;;;;;;6.33;3.67;;;15.90;74.80;;;;;;2020742;28;20273;-75
2022/03/11 00:08:14;;;;;;;4.28;3.67;;;15.90;79.40;;;;;;2020768;28;20184;-76
2022/03/11 00:09:12;;;;;;;4.77;3.70;;;15.90;77.10;;;;;;2020020;28;20188;-76
2022/03/11 00:10:11;;;;;;;4.77;3.80;;;15.90;79.60;;;;;;2020307;28;20182;-75
2022/03/11 00:11:09;;;;;;;6.00;3.90;;;15.90;72.00;;;;;;2020917;28;20168;-75
2022/03/11 00:12:09;;;;;;;4.90;3.40;;;15.90;72.00;;;;;;2020528;28;20195;-75
2022/03/11 00:13:08;;;;;;;4.65;3.58;;;15.90;71.20;;;;;;2020612;28;20198;-75
2022/03/11 00:14:07;;;;;;;8.07;3.92;;;15.90;70.70;;;;;;2020634;28;20634;-75
2022/03/11 00:15:06;;;;;;;5.47;3.50;;;15.90;70.50;;;;;;2020594;28;20290;-75
2022/03/11 00:16:04;;;;;;;5.13;3.60;;;15.90;71.00;;;;;;2019979;28;20190;-75
2022/03/11 00:17:04;;;;;;;6.10;3.43;;;15.90;70.50;;;;;;2020118;28;20178;-75
2022/03/11 00:18:02;;;;;;;4.03;3.17;;;15.90;71.00;;;;;;2020518;28;20179;-74
2022/03/11 00:19:01;;;;;;;5.53;3.60;;;15.90;70.80;;;;;;2019993;28;20176;-75
2022/03/11 00:20:00;;;;;;;4.90;3.13;;;15.90;70.60;;;;;;2020053;28;20184;-76
2022/03/11 00:20:58;;;;;;;6.20;3.33;;;15.90;70.60;;;;;;2020570;28;20571;-75
2022/03/11 00:21:57;;;;;;;3.50;3.07;;;15.90;70.80;;;;;;2020728;28;20172;-76
2022/03/11 00:22:56;;;;;;;7.03;3.77;;;15.80;70.90;;;;;;2020619;28;20196;-75
2022/03/11 00:23:54;;;;;;;4.67;3.50;;;15.90;70.30;;;;;;2020486;28;20575;-76
2022/03/11 00:24:53;;;;;;;4.30;3.60;;;15.80;70.70;;;;;;2020539;28;20417;-75
2022/03/11 00:25:52;;;;;;;5.50;3.80;;;15.80;70.80;;;;;;2020578;28;20168;-75
2022/03/11 00:26:51;;;;;;;5.33;3.53;;;15.90;70.70;;;;;;2020456;28;20398;-76
2022/03/11 00:27:53;;;;;;;7.20;3.92;;;15.80;70.60;;;;;;2019559;28;20202;-75
2022/03/11 00:28:52;;;;;;;5.53;3.50;;;15.80;70.60;;;;;;2019549;28;20545;-75
2022/03/11 00:29:50;;;;;;;6.07;4.10;;;15.80;70.70;;;;;;2020662;28;20176;-76
2022/03/11 00:30:49;;;;;;;5.17;3.80;;;15.80;70.60;;;;;;2020800;28;20526;-76
2022/03/11 00:31:47;;;;;;;4.07;3.10;;;15.80;70.70;;;;;;2020344;28;20176;-75
2022/03/11 00:32:47;;;;;;;3.97;3.30;;;15.80;70.60;;;;;;2020576;28;20194;-75
2022/03/11 00:33:45;;;;;;;3.97;3.45;;;15.80;71.10;;;;;;2019838;28;20167;-74
2022/03/11 00:34:44;;;;;;;6.50;4.00;;;15.80;70.80;;;;;;2020059;28;20198;-75
2022/03/11 00:35:43;;;;;;;7.97;3.83;;;15.80;70.90;;;;;;2020302;28;20163;-74
2022/03/11 00:36:43;;;;;;;4.27;3.77;;;15.80;70.90;;;;;;2020541;28;20202;-75
2022/03/11 00:37:42;;;;;;;5.00;3.80;;;15.80;70.30;;;;;;2019833;28;20419;-75
2022/03/11 00:38:40;;;;;;;4.05;3.13;;;15.80;70.20;;;;;;2020036;28;20168;-76
2022/03/11 00:39:39;;;;;;;7.30;3.40;;;15.80;70.60;;;;;;2020444;28;20534;-76
2022/03/11 00:40:37;;;;;;;6.40;3.77;;;15.80;70.50;;;;;;2019733;28;20171;-75
2022/03/11 00:41:37;;;;;;;4.40;3.33;;;15.80;70.90;;;;;;2011867;28;20330;-74
2022/03/11 00:42:35;;;;;;;5.40;3.67;;;15.80;70.80;;;;;;2019406;28;20211;-75
2022/03/11 00:43:34;;;;;;;4.80;4.07;;;15.80;70.60;;;;;;2020434;28;20557;-75
2022/03/11 00:44:32;;;;;;;4.37;3.30;;;15.80;70.60;;;;;;2020444;28;20172;-75
2022/03/11 00:45:31;;;;;;;3.87;3.10;;;15.80;70.60;;;;;;2020349;28;20241;-74
2022/03/11 00:46:29;;;;;;;4.90;3.40;;;15.80;70.70;;;;;;2020660;28;20176;-74
2022/03/11 00:47:28;;;;;;;5.73;4.00;;;15.80;70.70;;;;;;2020209;28;20167;-76
2022/03/11 00:48:26;;;;;;;6.03;4.07;;;15.80;70.90;;;;;;2020329;28;20247;-74
2022/03/11 00:49:25;;;;;;;7.23;3.40;;;15.80;70.60;;;;;;2020348;28;20206;-75
2022/03/11 00:50:24;;;;;;;3.90;3.10;;;15.80;70.70;;;;;;2020371;28;20221;-74
2022/03/11 00:51:22;;;;;;;6.30;3.33;;;15.80;71.00;;;;;;2020526;28;20254;-75
2022/03/11 00:52:21;;;;;;;5.20;4.13;;;15.80;70.80;;;;;;2020210;28;20265;-75
2022/03/11 00:53:20;;;;;;;3.80;3.23;;;15.80;70.60;;;;;;2020276;28;20192;-76
2022/03/11 00:54:18;;;;;;;6.73;4.20;;;15.80;70.90;;;;;;2020361;28;20302;-75
2022/03/11 00:55:17;;;;;;;4.50;3.40;;;15.80;70.80;;;;;;2020414;28;20441;-74
2022/03/11 00:56:15;;;;;;;6.03;3.63;;;15.80;70.70;;;;;;2020359;28;20175;-74
2022/03/11 00:57:16;;;;;;;4.50;3.53;;;15.80;71.00;;;;;;2020298;28;20179;-75
2022/03/11 00:58:14;;;;;;;6.30;4.35;;;15.70;70.80;;;;;;2020481;28;20233;-74
2022/03/11 00:59:15;;;;;;;5.13;3.40;;;15.80;71.00;;;;;;2020455;28;20258;-75
2022/03/11 01:00:14;;;;;;;4.70;2.70;;;15.80;70.90;;;;;;2020261;28;20658;-75
2022/03/11 01:01:13;;;;;;;4.75;3.63;;;15.80;71.40;;;;;;2020237;28;20257;-75
2022/03/11 01:02:12;;;;;;;5.53;3.90;;;15.80;71.10;;;;;;2020390;28;20175;-75
2022/03/11 01:03:10;;;;;;;4.67;3.63;;;15.90;70.90;;;;;;2020451;28;20195;-74
2022/03/11 01:04:10;;;;;;;5.17;3.80;;;15.80;71.00;;;;;;2020376;28;20206;-75
2022/03/11 01:05:09;;;;;;;4.60;3.67;;;15.80;71.20;;;;;;2020411;28;20172;-76
2022/03/11 01:06:08;;;;;;;4.50;3.67;;;15.80;71.30;;;;;;2020365;28;20190;-75
2022/03/11 01:07:06;;;;;;;4.20;3.30;;;15.80;71.30;;;;;;2020412;28;20206;-74
2022/03/11 01:08:05;;;;;;;5.77;3.27;;;15.80;71.30;;;;;;2020259;28;20168;-75
2022/03/11 01:09:05;;;;;;;6.93;3.90;;;15.80;71.70;;;;;;2020407;28;20635;-76
2022/03/11 01:10:05;;;;;;;5.03;3.40;;;15.80;72.10;;;;;;2019656;28;20182;-75
2022/03/11 01:11:05;;;;;;;4.07;3.40;;;15.70;71.80;;;;;;2019865;28;20203;-75
2022/03/11 01:12:04;;;;;;;6.00;3.90;;;15.70;72.10;;;;;;2020106;28;20192;-75
2022/03/11 01:13:05;;;;;;;4.07;3.47;;;15.70;72.40;;;;;;2020212;28;20678;-75
2022/03/11 01:14:04;;;;;;;5.40;3.42;;;15.70;72.70;;;;;;2020383;28;20295;-75
2022/03/11 01:15:04;;;;;;;4.18;3.67;;;15.70;73.00;;;;;;2020345;28;20167;-76
2022/03/11 01:16:04;;;;;;;5.93;4.60;;;15.70;73.80;;;;;;2020282;28;20172;-74
2022/03/11 01:17:03;;;;;;;8.15;3.65;;;15.70;75.80;;;;;;2020393;28;20164;-74
2022/03/11 01:18:01;;;;;;;4.30;3.10;;;15.70;81.40;;;;;;2019704;28;20263;-75
2022/03/11 01:19:04;;;;;;;4.13;3.27;;;15.60;92.20;;;;;;2019877;28;20250;-75
2022/03/11 01:20:07;;;;;;;4.05;3.05;;;;;;;;;;2020310;28;20171;-75
2022/03/11 01:21:10;;;;;;;4.45;3.33;;;15.20;89.50;;;;;;2020170;28;20182;-75
2022/03/11 01:22:09;;;;;;;5.30;3.67;;;;;;;;;;2020393;28;20165;-75
2022/03/11 01:23:14;;;;;;;4.53;3.35;;;;;;;;;;2019599;28;20218;-75
2022/03/11 01:24:13;;;;;;;3.55;3.25;;;15.70;70.30;;;;;;2019656;28;20204;-75
2022/03/11 01:25:11;;;;;;;4.53;3.30;;;15.70;70.50;;;;;;2020408;28;20183;-74
2022/03/11 01:26:12;;;;;;;5.23;3.43;;;15.70;70.10;;;;;;2020302;28;20171;-74
2022/03/11 01:27:11;;;;;;;5.97;3.55;;;15.70;70.20;;;;;;2020255;28;20198;-76
2022/03/11 01:28:09;;;;;;;6.47;3.83;;;15.70;70.10;;;;;;2020476;28;20190;-76
2022/03/11 01:29:07;;;;;;;5.63;3.70;;;15.70;70.30;;;;;;2020371;28;20179;-76
2022/03/11 01:30:09;;;;;;;5.83;3.50;;;15.70;70.20;;;;;;2020214;28;20307;-75
2022/03/11 01:31:12;;;;;;;4.53;3.60;;;15.70;70.40;;;;;;2020241;28;20164;-76
2022/03/11 01:32:12;;;;;;;4.85;3.33;;;15.60;70.30;;;;;;2020341;28;20180;-76
2022/03/11 01:33:10;;;;;;;3.90;2.92;;;15.70;69.60;;;;;;2020230;28;20298;-76
2022/03/11 01:34:09;;;;;;;4.30;2.90;;;15.70;70.00;;;;;;2019731;28;20259;-75
2022/03/11 01:35:08;;;;;;;3.80;3.07;;;15.70;70.30;;;;;;2019856;28;20684;-76
2022/03/11 01:36:10;;;;;;;4.22;3.17;;;15.70;70.30;;;;;;2020460;28;20164;-75
2022/03/11 01:37:09;;;;;;;5.55;3.95;;;15.70;70.30;;;;;;2020125;28;20172;-76
2022/03/11 01:38:07;;;;;;;4.80;3.63;;;15.70;70.30;;;;;;2020263;28;20168;-76
2022/03/11 01:39:06;;;;;;;4.20;2.90;;;15.70;70.50;;;;;;2020329;28;20175;-75
2022/03/11 01:40:05;;;;;;;6.57;3.53;;;15.70;70.40;;;;;;2021401;28;20195;-75
2022/03/11 01:41:04;;;;;;;6.43;3.63;;;15.70;70.60;;;;;;2021803;28;20531;-76
2022/03/11 01:42:03;;;;;;;4.45;3.60;;;15.70;70.50;;;;;;2022058;28;20168;-76
2022/03/11 01:43:01;;;;;;;5.40;3.43;;;15.80;70.70;;;;;;2021764;28;20538;-75
2022/03/11 01:44:03;;;;;;;4.30;3.23;;;15.70;70.70;;;;;;2021149;28;20422;-75
2022/03/11 01:45:04;;;;;;;5.80;4.05;;;15.70;70.80;;;;;;2021069;28;20184;-74
2022/03/11 01:46:02;;;;;;;5.70;3.70;;;15.60;70.90;;;;;;2021914;28;20188;-76
2022/03/11 01:47:01;;;;;;;3.47;2.73;;;15.60;70.80;;;;;;2021788;28;20617;-75
2022/03/11 01:47:59;;;;;;;3.50;2.93;;;15.60;70.90;;;;;;2021071;28;20534;-76
2022/03/11 01:49:00;;;;;;;4.80;3.20;;;15.60;70.90;;;;;;2020722;28;20217;-75
2022/03/11 01:49:59;;;;;;;4.15;2.60;;;15.60;70.80;;;;;;2020863;28;20241;-75
2022/03/11 01:50:57;;;;;;;5.33;3.17;;;15.60;71.00;;;;;;2021158;28;20265;-75
2022/03/11 01:51:56;;;;;;;4.30;3.50;;;15.60;71.00;;;;;;2021646;28;20581;-75
2022/03/11 01:52:54;;;;;;;4.50;3.30;;;15.70;71.20;;;;;;2021626;28;20219;-74
2022/03/11 01:53:55;;;;;;;5.30;3.50;;;15.60;71.10;;;;;;2021705;28;20171;-76
2022/03/11 01:54:53;;;;;;;4.00;2.85;;;15.60;70.90;;;;;;2021735;28;20241;-75
2022/03/11 01:55:52;;;;;;;4.50;3.47;;;15.60;71.00;;;;;;2021663;28;20207;-75
2022/03/11 01:56:51;;;;;;;5.40;2.63;;;15.60;71.00;;;;;;2021864;28;20180;-75
2022/03/11 01:57:50;;;;;;;3.00;2.70;;;15.60;71.20;;;;;;2021018;28;20176;-75
2022/03/11 01:58:49;;;;;;;3.67;3.20;;;15.60;71.90;;;;;;2021049;28;20172;-75
2022/03/11 01:59:48;;;;;;;5.20;2.92;;;15.60;71.20;;;;;;2020582;28;20171;-75
2022/03/11 02:00:46;;;;;;;4.17;3.40;;;15.60;71.30;;;;;;2020965;28;20183;-75
2022/03/11 02:01:45;;;;;;;4.20;3.10;;;15.60;71.20;;;;;;2021690;28;20172;-76
2022/03/11 02:02:44;;;;;;;4.70;3.20;;;15.60;71.20;;;;;;2021738;28;20233;-76
2022/03/11 02:03:42;;;;;;;4.50;3.20;;;15.60;71.20;;;;;;2021644;28;20250;-74
2022/03/11 02:04:41;;;;;;;4.47;3.23;;;15.60;71.10;;;;;;2021776;28;20172;-75
2022/03/11 02:05:40;;;;;;;4.80;3.10;;;15.60;71.40;;;;;;2021643;28;20245;-75
2022/03/11 02:06:38;;;;;;;7.83;3.57;;;15.60;71.30;;;;;;2021663;28;20172;-75
2022/03/11 02:07:37;;;;;;;4.43;3.13;;;15.60;71.60;;;;;;2021651;28;20193;-75
2022/03/11 02:08:36;;;;;;;4.40;3.07;;;15.60;71.30;;;;;;2021678;28;20183;-76
2022/03/11 02:09:34;;;;;;;5.17;3.47;;;15.60;71.40;;;;;;2021753;28;20233;-75
2022/03/11 02:10:33;;;;;;;3.60;3.17;;;15.60;71.50;;;;;;2021766;28;20464;-75
2022/03/11 02:11:31;;;;;;;3.90;2.67;;;15.60;71.50;;;;;;2021579;28;20168;-75
2022/03/11 02:12:33;;;;;;;4.20;2.90;;;15.60;71.90;;;;;;2021411;28;20663;-75
2022/03/11 02:13:51;;;;;;;7.80;3.72;;;15.60;71.70;;;;;;2021518;28;20167;-74
2022/03/11 02:14:50;;;;;;;3.65;3.05;;;15.60;71.50;;;;;;2021598;28;20183;-75
2022/03/11 02:15:49;;;;;;;3.30;3.00;;;15.60;71.40;;;;;;2021798;28;20172;-76
2022/03/11 02:16:48;;;;;;;4.93;3.65;;;15.50;71.60;;;;;;2021531;28;20585;-75
2022/03/11 02:17:46;;;;;;;4.20;3.03;;;15.50;71.60;;;;;;2021619;28;20179;-76
2022/03/11 02:18:46;;;;;;;3.93;3.13;;;15.50;71.80;;;;;;2021678;28;20631;-76
2022/03/11 02:19:44;;;;;;;5.03;3.10;;;15.50;71.70;;;;;;2021674;28;20572;-75
2022/03/11 02:20:46;;;;;;;5.63;2.97;;;15.60;71.80;;;;;;2021641;28;20183;-74
2022/03/11 02:21:46;;;;;;;3.95;2.80;;;15.60;71.70;;;;;;2021631;28;20263;-74
2022/03/11 02:22:49;;;;;;;3.63;2.88;;;15.60;71.90;;;;;;2020816;28;20261;-75
2022/03/11 02:23:52;;;;;;;6.25;4.30;;;15.60;72.00;;;;;;2021112;28;20184;-75
2022/03/11 02:24:52;;;;;;;3.85;3.28;;;15.60;71.90;;;;;;2021362;28;20539;-75
2022/03/11 02:25:52;;;;;;;5.78;3.50;;;15.50;72.10;;;;;;2020830;28;20175;-75
2022/03/11 02:26:51;;;;;;;3.88;2.78;;;15.50;72.20;;;;;;2021021;28;20168;-75
2022/03/11 02:27:49;;;;;;;4.30;3.20;;;15.50;72.30;;;;;;2021629;28;20176;-75
2022/03/11 02:28:49;;;;;;;3.17;2.60;;;15.50;72.50;;;;;;2021454;28;20199;-75
2022/03/11 02:29:48;;;;;;;6.07;3.88;;;15.50;72.60;;;;;;2021664;28;20180;-75
2022/03/11 02:30:46;;;;;;;4.07;2.70;;;15.50;72.90;;;;;;2020795;28;20514;-75
2022/03/11 02:31:45;;;;;;;5.07;3.53;;;15.50;73.00;;;;;;2020992;28;20167;-74
2022/03/11 02:32:45;;;;;;;4.57;3.50;;;15.50;72.90;;;;;;2021106;28;20219;-75
2022/03/11 02:33:44;;;;;;;7.50;3.97;;;15.50;72.80;;;;;;2020752;28;20540;-75
2022/03/11 02:34:43;;;;;;;3.77;2.97;;;15.50;73.30;;;;;;2020862;28;20179;-74
2022/03/11 02:35:41;;;;;;;5.00;3.40;;;15.50;73.40;;;;;;2021348;28;20183;-74
2022/03/11 02:36:40;;;;;;;3.40;2.87;;;15.50;73.60;;;;;;2021354;28;20672;-75
2022/03/11 02:37:38;;;;;;;4.20;2.90;;;15.60;73.70;;;;;;2021320;28;20510;-75
2022/03/11 02:38:37;;;;;;;3.07;2.77;;;15.50;73.80;;;;;;2021628;28;20168;-75
2022/03/11 02:39:36;;;;;;;5.30;3.07;;;15.50;73.70;;;;;;2021516;28;20168;-75
2022/03/11 02:40:35;;;;;;;4.20;3.00;;;15.50;73.90;;;;;;2021483;28;20475;-74
2022/03/11 02:41:34;;;;;;;6.85;3.88;;;15.50;74.40;;;;;;2020844;28;20172;-74
2022/03/11 02:42:33;;;;;;;3.90;2.90;;;15.50;73.70;;;;;;2020337;28;20176;-75
2022/03/11 02:43:32;;;;;;;4.22;2.97;;;15.50;74.30;;;;;;2028401;28;20646;-75
2022/03/11 02:44:31;;;;;;;4.18;2.95;;;15.50;74.40;;;;;;2022018;28;20529;-75
2022/03/11 02:45:30;;;;;;;2.83;2.47;;;15.50;74.70;;;;;;2021471;28;20241;-75
2022/03/11 02:46:28;;;;;;;3.40;2.80;;;15.50;74.70;;;;;;2020760;28;20417;-76
2022/03/11 02:47:27;;;;;;;4.33;3.23;;;15.50;75.00;;;;;;2020882;28;20176;-75
2022/03/11 02:48:28;;;;;;;4.60;3.15;;;15.50;74.90;;;;;;2021266;28;20172;-75
2022/03/11 02:49:27;;;;;;;4.60;3.20;;;15.50;75.10;;;;;;2020362;28;20219;-75
2022/03/11 02:50:26;;;;;;;3.50;2.90;;;15.50;75.40;;;;;;2020746;28;20179;-75
2022/03/11 02:51:25;;;;;;;4.77;3.30;;;15.50;76.20;;;;;;2020381;28;20670;-75
2022/03/11 02:52:23;;;;;;;4.17;3.27;;;15.50;76.50;;;;;;2021179;28;20195;-75
2022/03/11 02:53:22;;;;;;;5.23;4.00;;;15.50;77.80;;;;;;2021475;28;20578;-75
2022/03/11 02:54:21;;;;;;;3.00;2.70;;;15.50;79.40;;;;;;2021329;28;20168;-75
2022/03/11 02:55:19;;;;;;;2.97;2.67;;;15.50;80.20;;;;;;2021349;28;20552;-75
2022/03/11 02:56:18;;;;;;;3.30;3.00;;;15.50;80.70;;;;;;2021302;28;20179;-75
2022/03/11 02:57:16;;;;;;;3.63;2.30;;;15.50;79.60;;;;;;2021293;28;20199;-75
2022/03/11 02:58:15;;;;;;;3.43;2.80;;;15.50;76.40;;;;;;2021236;28;20601;-74
2022/03/11 02:59:13;;;;;;;6.73;3.70;;;15.50;75.10;;;;;;2021280;28;20221;-76
2022/03/11 03:00:13;;;;;;;4.13;2.77;;;15.50;75.80;;;;;;2021347;28;20186;-76
2022/03/11 03:01:11;;;;;;;5.47;3.15;;;15.50;76.50;;;;;;2020925;28;20202;-76
2022/03/11 03:02:10;;;;;;;4.07;2.60;;;15.50;78.60;;;;;;2021159;28;20647;-76
2022/03/11 03:03:08;;;;;;;3.53;2.80;;;15.50;79.30;;;;;;2021116;28;20188;-75
2022/03/11 03:04:07;;;;;;;5.10;3.10;;;15.50;82.80;;;;;;2021072;28;20176;-75
2022/03/11 03:05:06;;;;;;;4.30;3.10;;;15.50;82.10;;;;;;2021362;28;20207;-75
2022/03/11 03:06:06;;;;;;;4.20;2.83;;;15.50;81.60;;;;;;2021310;28;20222;-77
2022/03/11 03:07:07;;;;;;;4.40;2.88;;;15.60;83.50;;;;;;2020840;28;20179;-75
2022/03/11 03:08:06;;;;;;;4.85;2.83;;;15.60;89.50;;;;;;2021347;28;20359;-76
2022/03/11 03:09:04;;;;;;;4.43;3.20;;;;;;;;;;2021373;28;20730;-76
2022/03/11 03:10:03;;;;;;;4.07;2.67;;;15.40;81.20;;;;;;2021279;28;20606;-75
2022/03/11 03:11:02;;;;;;;6.73;3.10;;;15.50;82.70;;;;;;2021263;28;20485;-75
2022/03/11 03:12:01;;;;;;;5.90;3.47;;;15.40;78.50;;;;;;2021305;28;20406;-74
2022/03/11 03:13:00;;;;;;;4.03;2.80;;;15.40;69.40;;;;;;2021159;28;20603;-75
2022/03/11 03:13:58;;;;;;;3.57;2.70;;;15.40;69.40;;;;;;2020270;28;20184;-75
2022/03/11 03:14:57;;;;;;;3.07;2.70;;;15.40;69.60;;;;;;2020508;28;20180;-75
2022/03/11 03:15:56;;;;;;;3.40;2.80;;;15.50;69.90;;;;;;2021080;28;20182;-75
2022/03/11 03:16:54;;;;;;;2.90;2.60;;;15.50;70.30;;;;;;2021127;28;20233;-76
2022/03/11 03:17:52;;;;;;;5.90;3.40;;;15.50;70.10;;;;;;2021082;28;20178;-75
2022/03/11 03:18:51;;;;;;;3.47;2.90;;;15.40;70.30;;;;;;2020500;28;20192;-76
2022/03/11 03:19:50;;;;;;;4.40;3.13;;;15.40;70.40;;;;;;2012511;28;20211;-76
2022/03/11 03:20:48;;;;;;;3.37;2.43;;;15.40;70.40;;;;;;2020150;28;20414;-76
2022/03/11 03:21:47;;;;;;;5.70;3.70;;;15.40;70.70;;;;;;2019992;28;20257;-75
2022/03/11 03:22:45;;;;;;;5.20;2.83;;;15.40;71.10;;;;;;2020513;28;20192;-74
2022/03/11 03:23:44;;;;;;;3.10;2.50;;;15.40;71.60;;;;;;2021035;28;20706;-74
2022/03/11 03:24:43;;;;;;;3.33;2.50;;;15.40;72.20;;;;;;2021172;28;20208;-76
2022/03/11 03:25:42;;;;;;;4.78;3.28;;;15.40;72.50;;;;;;2020891;28;20381;-75
2022/03/11 03:26:40;;;;;;;5.10;3.07;;;15.40;74.50;;;;;;2021121;28;20182;-75
2022/03/11 03:27:39;;;;;;;3.93;3.00;;;15.40;73.70;;;;;;2021105;28;20218;-74
2022/03/11 03:28:38;;;;;;;5.13;3.00;;;15.40;74.10;;;;;;2021086;28;20670;-76
2022/03/11 03:29:37;;;;;;;4.60;3.05;;;15.40;72.90;;;;;;2021225;28;20170;-75
2022/03/11 03:30:36;;;;;;;4.87;3.00;;;15.40;76.40;;;;;;2020994;28;20171;-75
2022/03/11 03:31:35;;;;;;;4.70;3.17;;;;;;;;;;2021097;28;20179;-75
2022/03/11 03:32:33;;;;;;;5.10;3.07;;;15.30;75.90;;;;;;2020920;28;20222;-75
2022/03/11 03:33:33;;;;;;;4.40;2.97;;;15.30;71.10;;;;;;2021025;28;20407;-75
2022/03/11 03:34:36;;;;;;;3.70;2.60;;;15.30;80.10;;;;;;2020549;28;20530;-75
2022/03/11 03:35:35;;;;;;;4.65;3.25;;;15.30;72.70;;;;;;2020470;28;20263;-76
2022/03/11 03:36:33;;;;;;;6.30;3.17;;;15.40;74.50;;;;;;2021111;28;20177;-75
2022/03/11 03:37:34;;;;;;;4.50;2.97;;;15.40;72.70;;;;;;2020774;28;20192;-76
2022/03/11 03:38:33;;;;;;;5.13;3.10;;;15.30;71.10;;;;;;2020286;28;20532;-76
2022/03/11 03:39:31;;;;;;;6.37;3.20;;;15.30;72.90;;;;;;2020461;28;20272;-75
2022/03/11 03:40:30;;;;;;;4.10;2.87;;;15.40;73.70;;;;;;2027771;28;20171;-76
2022/03/11 03:41:28;;;;;;;3.47;2.67;;;15.40;73.80;;;;;;2028443;28;20190;-76
2022/03/11 03:42:27;;;;;;;8.10;3.50;;;15.40;75.30;;;;;;2021381;28;20164;-75
2022/03/11 03:43:25;;;;;;;6.47;2.97;;;15.40;74.20;;;;;;2020973;28;20229;-75
2022/03/11 03:44:24;;;;;;;3.03;2.63;;;15.30;75.10;;;;;;2020978;28;20167;-76
2022/03/11 03:45:22;;;;;;;4.40;3.20;;;15.40;73.20;;;;;;2020808;28;20219;-76
2022/03/11 03:46:21;;;;;;;3.67;2.80;;;15.30;75.90;;;;;;2020921;28;20582;-75
2022/03/11 03:47:20;;;;;;;4.00;2.83;;;15.30;76.40;;;;;;2020888;28;20171;-75
2022/03/11 03:48:19;;;;;;;6.30;3.20;;;15.30;73.30;;;;;;2020299;28;20172;-75
2022/03/11 03:49:19;;;;;;;5.28;3.33;;;15.40;73.10;;;;;;2020171;28;20267;-75
2022/03/11 03:50:18;;;;;;;4.85;3.17;;;15.30;77.60;;;;;;2020749;28;20175;-74
2022/03/11 03:51:16;;;;;;;3.63;2.80;;;15.30;74.10;;;;;;2020850;28;20650;-75
2022/03/11 03:52:15;;;;;;;2.90;2.53;;;15.30;75.20;;;;;;2020688;28;20657;-75
2022/03/11 03:53:14;;;;;;;3.60;3.13;;;15.30;76.30;;;;;;2020816;28;20202;-75
2022/03/11 03:54:14;;;;;;;6.47;3.30;;;;;;;;;;2020181;28;20215;-75
2022/03/11 03:55:12;;;;;;;3.65;2.67;;;15.40;75.80;;;;;;2020497;28;20176;-76
2022/03/11 03:56:11;;;;;;;3.70;3.00;;;15.30;73.60;;;;;;2020895;28;20207;-75
2022/03/11 03:57:09;;;;;;;4.77;3.53;;;15.30;75.80;;;;;;2020185;28;20254;-75
2022/03/11 03:58:10;;;;;;;6.20;3.30;;;15.30;74.20;;;;;;2020478;28;20174;-75
2022/03/11 03:59:10;;;;;;;4.10;3.10;;;17.00;76.40;;;;;;2020930;28;20532;-74
2022/03/11 04:00:09;;;;;;;2.95;2.70;;;15.20;75.50;;;;;;2020348;28;20267;-75
2022/03/11 04:01:08;;;;;;;4.60;2.95;;;;;;;;;;2020225;28;20262;-75
2022/03/11 04:02:07;;;;;;;3.70;2.93;;;;;;;;;;2027678;28;20174;-76
2022/03/11 04:03:05;;;;;;;3.20;2.70;;;15.30;82.30;;;;;;2021070;28;20457;-74
2022/03/11 04:04:05;;;;;;;5.03;3.23;;;15.30;71.00;;;;;;2020075;28;20411;-75
2022/03/11 04:05:04;;;;;;;4.07;3.33;;;15.30;71.20;;;;;;2020268;28;20561;-75
2022/03/11 04:06:03;;;;;;;3.90;3.13;;;15.30;71.30;;;;;;2020755;28;20202;-75
2022/03/11 04:07:01;;;;;;;4.37;3.00;;;15.30;70.80;;;;;;2020659;28;20504;-75
2022/03/11 04:08:00;;;;;;;3.20;2.60;;;15.30;70.90;;;;;;2020791;28;20631;-76
2022/03/11 04:08:59;;;;;;;5.83;3.30;;;15.30;71.00;;;;;;2020801;28;20186;-74
2022/03/11 04:09:58;;;;;;;5.22;3.40;;;15.30;71.30;;;;;;2020822;28;20167;-74
2022/03/11 04:10:57;;;;;;;3.78;2.92;;;15.30;71.40;;;;;;2020658;28;20271;-75
2022/03/11 04:11:55;;;;;;;5.27;3.03;;;15.30;71.20;;;;;;2020864;28;20180;-75
2022/03/11 04:12:54;;;;;;;3.60;2.83;;;15.30;71.30;;;;;;2020602;28;20286;-74
2022/03/11 04:13:54;;;;;;;3.90;3.08;;;15.30;71.30;;;;;;2020661;28;20259;-75
2022/03/11 04:14:53;;;;;;;4.68;3.17;;;15.30;71.80;;;;;;2020601;28;20230;-74
2022/03/11 04:15:51;;;;;;;4.53;3.20;;;15.30;71.50;;;;;;2020697;28;20164;-75
2022/03/11 04:16:50;;;;;;;3.27;2.20;;;15.30;71.90;;;;;;2023887;28;20229;-75
2022/03/11 04:17:49;;;;;;;5.00;3.17;;;15.30;71.90;;;;;;2023009;28;20195;-75
2022/03/11 04:18:48;;;;;;;3.60;2.80;;;15.30;71.80;;;;;;2023863;28;20174;-75
2022/03/11 04:19:48;;;;;;;4.78;3.30;;;15.30;71.80;;;;;;2025205;28;20398;-75
2022/03/11 04:20:47;;;;;;;5.40;3.53;;;15.30;71.80;;;;;;2025456;28;20233;-75
2022/03/11 04:21:45;;;;;;;5.30;3.87;;;15.20;71.80;;;;;;2025213;28;20203;-75
2022/03/11 04:22:45;;;;;;;4.30;3.00;;;15.30;72.40;;;;;;2024729;28;20559;-75
2022/03/11 04:23:45;;;;;;;4.50;3.38;;;15.30;72.20;;;;;;2022681;28;20192;-75
2022/03/11 04:24:43;;;;;;;5.18;3.28;;;15.30;72.30;;;;;;2020886;28;20784;-75
2022/03/11 04:25:42;;;;;;;5.10;3.60;;;15.20;72.60;;;;;;2013209;28;20184;-76
2022/03/11 04:26:43;;;;;;;4.23;2.90;;;15.20;72.40;;;;;;2012431;28;20176;-74
2022/03/11 04:27:42;;;;;;;5.20;3.53;;;15.30;72.30;;;;;;2020240;28;20203;-75
2022/03/11 04:28:41;;;;;;;4.32;3.28;;;15.30;72.40;;;;;;2020962;28;20519;-76
2022/03/11 04:29:40;;;;;;;4.65;3.20;;;15.30;72.90;;;;;;2020831;28;20259;-76
2022/03/11 04:30:38;;;;;;;5.40;3.30;;;15.20;73.30;;;;;;2021039;28;20225;-76
2022/03/11 04:31:37;;;;;;;3.43;2.60;;;15.20;73.90;;;;;;2020954;28;20640;-74
2022/03/11 04:32:36;;;;;;;5.67;3.37;;;15.30;75.60;;;;;;2020560;28;20234;-75
2022/03/11 04:33:34;;;;;;;4.97;2.97;;;15.20;67.30;;;;;;2020834;28;20500;-74
2022/03/11 04:34:33;;;;;;;3.70;3.00;;;15.30;67.90;;;;;;2020806;28;20229;-74
2022/03/11 04:35:32;;;;;;;4.80;3.07;;;15.30;67.90;;;;;;2020878;28;20247;-74
2022/03/11 04:36:33;;;;;;;3.80;2.80;;;15.30;67.80;;;;;;2020942;28;20624;-74
2022/03/11 04:37:31;;;;;;;5.20;3.53;;;15.30;68.00;;;;;;2019802;28;20180;-74
2022/03/11 04:38:31;;;;;;;5.23;3.40;;;15.20;67.70;;;;;;2019986;28;20172;-75
2022/03/11 04:39:29;;;;;;;4.05;3.10;;;15.30;67.90;;;;;;2020533;28;20248;-74
2022/03/11 04:40:28;;;;;;;5.53;2.70;;;15.30;67.90;;;;;;2019875;28;20180;-75
2022/03/11 04:41:26;;;;;;;5.10;3.37;;;15.30;67.80;;;;;;2012105;28;20161;-74
2022/03/11 04:42:26;;;;;;;5.03;3.20;;;15.30;67.80;;;;;;2019325;28;20190;-75
2022/03/11 04:43:24;;;;;;;4.10;2.60;;;15.20;67.90;;;;;;2020747;28;20520;-74
2022/03/11 04:44:23;;;;;;;4.93;3.60;;;15.20;68.20;;;;;;2020525;28;20179;-75
2022/03/11 04:45:22;;;;;;;4.25;3.17;;;15.30;68.00;;;;;;2020217;28;20745;-75
2022/03/11 04:46:21;;;;;;;6.50;3.80;;;15.20;68.00;;;;;;2020465;28;20218;-75
2022/03/11 04:47:19;;;;;;;5.43;2.97;;;15.30;67.80;;;;;;2020449;28;20253;-76
2022/03/11 04:48:18;;;;;;;5.30;2.93;;;15.30;67.90;;;;;;2020434;28;20210;-75
2022/03/11 04:49:16;;;;;;;7.20;3.43;;;15.20;68.10;;;;;;2019604;28;20180;-75
2022/03/11 04:50:15;;;;;;;5.70;3.17;;;15.20;68.00;;;;;;2019990;28;20668;-75
2022/03/11 04:51:14;;;;;;;4.80;3.10;;;15.20;68.40;;;;;;2020507;28;20180;-75
2022/03/11 04:52:13;;;;;;;4.93;3.47;;;15.20;68.80;;;;;;2020286;28;20180;-75
2022/03/11 04:53:11;;;;;;;4.67;3.27;;;15.20;68.50;;;;;;2020399;28;20196;-75
2022/03/11 04:54:10;;;;;;;6.50;3.80;;;15.20;68.70;;;;;;2019921;28;20252;-76
2022/03/11 04:55:08;;;;;;;3.93;2.97;;;15.20;68.80;;;;;;2011796;28;20588;-76
2022/03/11 04:56:07;;;;;;;4.93;2.53;;;15.20;68.60;;;;;;2019372;28;20203;-76
2022/03/11 04:57:06;;;;;;;4.50;3.00;;;15.30;69.10;;;;;;2020342;28;20167;-75
2022/03/11 04:58:04;;;;;;;4.30;2.90;;;15.20;69.20;;;;;;2020424;28;20205;-75
2022/03/11 04:59:03;;;;;;;4.13;2.83;;;15.20;69.50;;;;;;2020435;28;20176;-75
2022/03/11 05:00:03;;;;;;;4.57;3.27;;;15.20;70.00;;;;;;2020163;28;20176;-75
2022/03/11 05:01:02;;;;;;;9.95;3.65;;;15.20;71.80;;;;;;2020467;28;20198;-75
2022/03/11 05:02:01;;;;;;;5.33;2.73;;;15.50;71.10;;;;;;2020376;28;20653;-75
2022/03/11 05:03:01;;;;;;;4.77;3.57;;;15.20;68.90;;;;;;2020383;28;20964;-76
2022/03/11 05:03:59;;;;;;;3.55;2.97;;;15.20;68.00;;;;;;2020345;28;20222;-75
2022/03/11 05:05:06;;;;;;;6.80;3.27;;;15.20;68.10;;;;;;2020351;28;20324;-75
2022/03/11 05:06:05;;;;;;;5.28;3.13;;;15.20;67.40;;;;;;2020608;28;20604;-76
2022/03/11 05:07:07;;;;;;;3.33;2.97;;;15.20;67.60;;;;;;2020485;28;20329;-75
2022/03/11 05:08:06;;;;;;;4.25;3.22;;;15.20;68.00;;;;;;2019620;28;20179;-76
2022/03/11 05:09:04;;;;;;;5.40;3.60;;;15.20;68.00;;;;;;2019728;28;20263;-75